Time;durP1;ratioP1;P1;durP2;ratioP2;P2;SDS_P1;SDS_P2;PMS_P1;PMS_P2;Temp;Humidity;BMP_temperature;BMP_pressure;BME280_temperature;BME280_humidity;BME280_pressure;Samples;Min_cycle;Max_cycle;Signal;HPM_P1;HPM_P2
2023/09/19 00:00:47;;;;;;;15.27;3.35;;;;;;;16.39;80.37;100560.47;3591030;39;20052;-68
2023/09/19 00:03:13;;;;;;;10.85;2.83;;;;;;;16.37;80.26;100562.47;3594450;39;20056;-69
2023/09/19 00:05:39;;;;;;;11.05;3.00;;;;;;;16.34;79.95;100557.34;3593273;39;20059;-67
2023/09/19 00:08:05;;;;;;;11.70;2.70;;;;;;;16.33;80.06;100562.88;3594698;39;20124;-68
2023/09/19 00:10:36;;;;;;;11.00;2.95;;;;;;;16.30;80.33;100561.31;3595026;39;20071;-69
2023/09/19 00:13:07;;;;;;;9.18;2.88;;;;;;;16.02;80.11;100517.69;3592334;39;20066;-67
2023/09/19 00:15:40;;;;;;;10.38;2.97;;;;;;;16.26;80.47;100570.72;3592524;39;20122;-68
2023/09/19 00:18:08;;;;;;;13.40;3.17;;;;;;;16.02;80.91;100536.69;3594867;39;20052;-67
2023/09/19 00:20:38;;;;;;;9.55;2.80;;;;;;;16.14;80.52;100567.28;3592630;39;20120;-68
2023/09/19 00:23:08;;;;;;;10.57;2.63;;;;;;;16.17;80.69;100579.69;3594725;39;20086;-67
2023/09/19 00:25:37;;;;;;;13.23;2.72;;;;;;;16.19;80.40;100574.97;3592842;39;20650;-68
2023/09/19 00:28:04;;;;;;;10.27;2.67;;;;;;;15.97;80.27;100552.47;3588252;39;20074;-68
2023/09/19 00:30:30;;;;;;;10.90;3.15;;;;;;;16.08;80.26;100584.09;3590813;39;20050;-69
2023/09/19 00:32:56;;;;;;;12.73;2.88;;;;;;;16.11;80.03;100593.78;3587097;39;20044;-67
2023/09/19 00:35:25;;;;;;;14.15;3.20;;;;;;;15.88;79.82;100566.84;3593971;39;20398;-69
2023/09/19 00:37:52;;;;;;;8.75;3.13;;;;;;;16.07;79.83;100592.34;3595857;39;20058;-67
2023/09/19 00:40:19;;;;;;;10.90;2.53;;;;;;;16.02;79.87;100590.06;3592125;39;20059;-69
2023/09/19 00:42:46;;;;;;;13.35;2.92;;;;;;;15.92;79.72;100576.44;3592413;39;20389;-67
2023/09/19 00:45:16;;;;;;;9.60;2.90;;;;;;;16.04;79.11;100598.03;3592335;39;20047;-68
2023/09/19 00:47:46;;;;;;;7.43;2.60;;;;;;;15.92;79.44;100586.41;3592448;39;20055;-68
2023/09/19 00:50:17;;;;;;;10.73;2.90;;;;;;;16.00;79.66;100609.16;3591660;39;20057;-69
2023/09/19 00:52:44;;;;;;;8.23;2.35;;;;;;;15.88;79.57;100588.53;3592768;39;20321;-68
2023/09/19 00:55:13;;;;;;;13.25;2.65;;;;;;;15.82;78.80;100583.66;3592542;39;20125;-68
2023/09/19 00:57:39;;;;;;;11.50;2.75;;;;;;;15.97;79.23;100619.41;3593655;39;20060;-68
2023/09/19 01:00:12;;;;;;;10.57;2.60;;;;;;;15.92;78.78;100614.41;3593961;39;20418;-68
2023/09/19 01:02:38;;;;;;;13.40;2.80;;;;;;;15.83;78.96;100598.94;3592949;39;20055;-68
2023/09/19 01:05:05;;;;;;;9.45;3.08;;;;;;;15.90;79.39;100624.50;3591831;39;20055;-69
2023/09/19 01:07:35;;;;;;;9.75;2.33;;;;;;;15.87;79.32;100618.50;3591472;39;20067;-68
2023/09/19 01:10:16;;;;;;;9.43;2.78;;;;;;;15.88;78.91;100628.34;3593163;39;20036;-68
2023/09/19 01:13:12;;;;;;;10.50;2.50;;;;;;;15.85;78.78;100625.91;3592387;39;20091;-67
2023/09/19 01:16:11;;;;;;;7.43;2.13;;;;;;;15.83;78.08;100634.19;3590401;39;20276;-70
2023/09/19 01:19:08;;;;;;;11.13;3.00;;;;;;;15.80;77.56;100629.03;3591568;39;20055;-69
2023/09/19 01:21:54;;;;;;;9.82;2.65;;;;;;;15.81;77.52;100640.72;3592247;39;20391;-69
2023/09/19 01:25:19;;;;;;;11.75;2.78;;;;;;;15.79;77.52;100643.56;3593494;39;20059;-68
2023/09/19 01:27:59;;;;;;;6.88;2.20;;;;;;;15.75;76.79;100642.97;3583931;39;20051;-68
2023/09/19 01:30:35;;;;;;;9.52;2.88;;;;;;;15.71;76.56;100646.09;3594040;39;20137;-68
2023/09/19 01:33:03;;;;;;;9.65;2.45;;;;;;;15.73;76.19;100653.09;3593722;39;20475;-67
2023/09/19 01:35:29;;;;;;;9.70;2.75;;;;;;;15.18;76.63;100564.81;3591486;39;20070;-68
2023/09/19 01:37:55;;;;;;;10.48;2.50;;;;;;;15.72;76.96;100655.91;3592351;39;20133;-68
2023/09/19 01:40:23;;;;;;;8.45;2.58;;;;;;;15.68;76.27;100647.19;3592250;39;20093;-69
2023/09/19 01:42:49;;;;;;;8.23;2.40;;;;;;;15.70;76.11;100657.94;3594853;39;20052;-67
2023/09/19 01:45:52;;;;;;;11.00;2.47;;;;;;;15.65;75.96;100652.00;3595009;39;20062;-68
2023/09/19 01:48:55;;;;;;;10.38;2.72;;;;;;;15.66;74.72;100664.53;3591367;39;20051;-69
2023/09/19 01:52:02;;;;;;;12.35;2.75;;;;;;;15.64;75.19;100655.72;3591698;39;20117;-68
2023/09/19 01:54:40;;;;;;;8.63;2.25;;;;;;;15.65;74.17;100657.41;3590299;39;20169;-67
2023/09/19 01:57:32;;;;;;;7.00;2.25;;;;;;;15.64;74.29;100659.28;3583296;39;20175;-68
2023/09/19 02:00:07;;;;;;;9.75;2.55;;;;;;;15.64;74.54;100650.28;3592434;39;20070;-68
2023/09/19 02:02:39;;;;;;;10.85;2.58;;;;;;;15.64;74.11;100655.72;3591137;39;20051;-68
2023/09/19 02:05:06;;;;;;;11.35;2.65;;;;;;;15.53;73.55;100643.91;3593673;39;20059;-67
2023/09/19 02:07:32;;;;;;;11.70;2.85;;;;;;;15.60;74.17;100654.22;3590415;39;20058;-68
2023/09/19 02:10:00;;;;;;;9.05;2.60;;;;;;;15.59;73.89;100652.53;3590990;39;20059;-68
2023/09/19 02:12:27;;;;;;;7.90;2.20;;;;;;;15.57;74.00;100649.94;3594316;39;20420;-67
2023/09/19 02:14:53;;;;;;;8.80;2.28;;;;;;;15.58;73.68;100657.09;3590934;39;20189;-68
2023/09/19 02:17:19;;;;;;;12.52;2.85;;;;;;;15.56;72.93;100657.19;3593101;39;20160;-69
2023/09/19 02:19:44;;;;;;;8.70;2.50;;;;;;;15.33;72.44;100623.09;3592391;39;20047;-68
2023/09/19 02:22:10;;;;;;;13.18;2.75;;;;;;;15.49;73.06;100647.88;3594102;39;20484;-69
2023/09/19 02:24:39;;;;;;;8.20;2.45;;;;;;;15.50;72.50;100655.00;3593147;39;20063;-67
2023/09/19 02:27:05;;;;;;;7.80;2.50;;;;;;;15.47;72.48;100663.41;3593136;39;20599;-67
2023/09/19 02:29:34;;;;;;;6.72;2.33;;;;;;;15.46;72.70;100660.84;3591550;39;20047;-68
2023/09/19 02:32:02;;;;;;;10.13;2.65;;;;;;;15.41;72.24;100671.19;3592035;39;20073;-68
2023/09/19 02:34:28;;;;;;;8.82;2.30;;;;;;;14.86;72.31;100580.09;3591521;39;20639;-68
2023/09/19 02:36:55;;;;;;;6.90;2.78;;;;;;;15.36;72.45;100662.63;3591595;39;20055;-68
2023/09/19 02:39:21;;;;;;;9.40;2.63;;;;;;;15.35;71.68;100672.59;3594939;39;20056;-66
2023/09/19 02:41:47;;;;;;;7.00;2.40;;;;;;;15.26;72.09;100651.69;3592115;39;20145;-68
2023/09/19 02:44:14;;;;;;;9.35;2.50;;;;;;;15.31;72.15;100671.97;3590978;39;20423;-67
2023/09/19 02:46:40;;;;;;;4.15;2.00;;;;;;;15.29;71.75;100668.53;3591387;39;20066;-68
2023/09/19 02:49:06;;;;;;;7.25;2.33;;;;;;;15.28;70.76;100666.81;3593847;39;20059;-67
2023/09/19 02:51:33;;;;;;;8.40;2.60;;;;;;;15.18;70.95;100659.59;3592090;39;20333;-68
2023/09/19 02:54:03;;;;;;;8.95;2.50;;;;;;;15.23;70.30;100668.22;3591941;39;20330;-67
2023/09/19 02:56:30;;;;;;;6.57;2.55;;;;;;;15.19;70.94;100667.59;3593512;39;20048;-67
2023/09/19 02:58:56;;;;;;;10.15;2.08;;;;;;;15.23;70.09;100679.03;3591305;39;20115;-68
2023/09/19 03:01:22;;;;;;;10.13;2.53;;;;;;;15.20;70.21;100673.88;3592178;39;20071;-66
2023/09/19 03:03:48;;;;;;;6.75;2.17;;;;;;;15.20;70.07;100679.28;3593567;39;20153;-68
2023/09/19 03:06:14;;;;;;;8.27;2.30;;;;;;;15.16;70.27;100675.09;3592022;39;20055;-67
2023/09/19 03:08:42;;;;;;;7.50;2.15;;;;;;;14.72;70.24;100614.72;3594755;39;20055;-68
2023/09/19 03:11:10;;;;;;;6.15;2.30;;;;;;;15.15;70.32;100678.81;3592668;39;20054;-68
2023/09/19 03:13:37;;;;;;;8.45;2.30;;;;;;;15.14;70.51;100679.81;3590955;39;20093;-68
2023/09/19 03:16:06;;;;;;;9.45;2.58;;;;;;;15.15;70.41;100676.09;3589461;39;20280;-67
2023/09/19 03:18:34;;;;;;;6.60;2.53;;;;;;;15.16;70.71;100680.50;3591094;39;20055;-68
2023/09/19 03:21:00;;;;;;;7.05;1.90;;;;;;;15.11;70.70;100669.22;3594534;39;20099;-68
2023/09/19 03:23:27;;;;;;;8.63;2.35;;;;;;;15.14;70.30;100675.25;3593568;39;20075;-67
2023/09/19 03:25:55;;;;;;;7.93;2.40;;;;;;;15.12;70.55;100677.22;3592468;39;20059;-67
2023/09/19 03:28:22;;;;;;;7.53;2.42;;;;;;;15.11;70.95;100686.31;3595020;39;20047;-67
2023/09/19 03:31:05;;;;;;;8.05;2.15;;;;;;;15.08;71.08;100676.59;3592398;39;20060;-68
2023/09/19 03:33:32;;;;;;;8.85;2.78;;;;;;;15.08;71.08;100676.59;3592636;39;20491;-68
2023/09/19 03:35:59;;;;;;;11.38;2.83;;;;;;;15.09;70.77;100667.47;3593724;39;20378;-68
2023/09/19 03:38:25;;;;;;;7.93;2.00;;;;;;;14.99;70.71;100644.88;3594415;39;20055;-67
2023/09/19 03:40:51;;;;;;;9.35;2.63;;;;;;;15.13;70.54;100678.06;3595229;39;20091;-66
2023/09/19 03:43:17;;;;;;;9.32;2.63;;;;;;;15.12;71.40;100663.66;3595226;39;20303;-68
2023/09/19 03:45:43;;;;;;;8.48;2.63;;;;;;;15.00;71.15;100640.31;3593060;39;20070;-68
2023/09/19 03:48:12;;;;;;;6.40;2.30;;;;;;;15.13;71.15;100672.66;3591377;39;20056;-68
2023/09/19 03:50:38;;;;;;;9.90;2.63;;;;;;;15.07;70.96;100653.25;3590979;39;20059;-68
2023/09/19 03:53:04;;;;;;;5.65;2.28;;;;;;;15.15;71.56;100667.97;3585183;39;20130;-68
2023/09/19 03:55:30;;;;;;;8.70;2.25;;;;;;;15.17;71.80;100666.00;3593967;39;20073;-69
2023/09/19 03:57:56;;;;;;;11.00;2.20;;;;;;;15.17;71.80;100668.72;3592603;39;20414;-68
2023/09/19 04:00:24;;;;;;;8.57;2.20;;;;;;;15.17;71.78;100663.31;3591046;39;20377;-67
2023/09/19 04:02:52;;;;;;;8.70;2.40;;;;;;;15.17;71.91;100664.16;3595182;39;20086;-67
2023/09/19 04:05:18;;;;;;;9.57;2.38;;;;;;;15.18;72.09;100662.31;3593045;39;20065;-68
2023/09/19 04:07:44;;;;;;;6.22;2.53;;;;;;;15.21;72.85;100664.75;3592178;39;20060;-67
2023/09/19 04:10:12;;;;;;;10.57;2.85;;;;;;;15.05;72.79;100643.53;3593376;39;20046;-68
2023/09/19 04:12:38;;;;;;;8.52;2.20;;;;;;;15.20;73.54;100657.63;3594070;39;20085;-67
2023/09/19 04:15:05;;;;;;;9.65;2.65;;;;;;;15.19;73.03;100662.19;3591548;39;20075;-68
2023/09/19 04:17:34;;;;;;;9.27;2.45;;;;;;;15.19;73.11;100662.19;3591356;39;20063;-67
2023/09/19 04:19:59;;;;;;;8.57;2.50;;;;;;;15.21;73.44;100664.75;3592340;39;20387;-69
2023/09/19 04:22:25;;;;;;;7.65;2.50;;;;;;;15.20;73.28;100674.72;3593234;39;20057;-69
2023/09/19 04:24:51;;;;;;;9.82;2.53;;;;;;;15.20;73.85;100679.28;3592420;39;20440;-68
2023/09/19 04:27:18;;;;;;;10.27;2.78;;;;;;;15.14;73.91;100690.63;3594645;39;20078;-68
2023/09/19 04:29:44;;;;;;;10.90;3.08;;;;;;;15.19;73.65;100691.97;3593830;39;20094;-67
2023/09/19 04:32:10;;;;;;;7.97;2.63;;;;;;;15.13;74.06;100684.38;3593383;39;20056;-69
2023/09/19 04:34:36;;;;;;;10.80;2.28;;;;;;;15.20;74.35;100700.97;3591658;39;20096;-68
2023/09/19 04:37:03;;;;;;;10.52;2.80;;;;;;;15.18;74.88;100702.91;3593237;39;20044;-68
2023/09/19 04:39:29;;;;;;;9.07;2.85;;;;;;;15.22;73.85;100712.50;3595192;39;20111;-67
2023/09/19 04:41:55;;;;;;;10.23;2.65;;;;;;;15.25;74.12;100717.66;3593229;39;20433;-67
2023/09/19 04:44:21;;;;;;;14.20;2.80;;;;;;;15.27;73.97;100719.25;3594688;39;20705;-68
2023/09/19 04:46:47;;;;;;;8.20;2.95;;;;;;;15.26;74.23;100711.28;3592392;39;20467;-67
2023/09/19 04:49:13;;;;;;;9.55;2.67;;;;;;;15.32;74.05;100724.31;3591565;39;20095;-68
2023/09/19 04:51:40;;;;;;;11.70;2.70;;;;;;;15.20;73.77;100701.81;3595450;39;20114;-67
2023/09/19 04:54:07;;;;;;;6.90;1.88;;;;;;;15.21;74.13;100706.22;3592074;39;20087;-67
2023/09/19 04:56:33;;;;;;;10.63;2.78;;;;;;;15.43;73.50;100735.09;3594640;39;20061;-67
2023/09/19 04:58:59;;;;;;;6.32;1.90;;;;;;;15.47;73.07;100741.97;3592523;39;20673;-68
2023/09/19 05:01:26;;;;;;;8.05;2.22;;;;;;;15.46;72.93;100739.41;3593220;39;20055;-68
2023/09/19 05:03:53;;;;;;;7.93;2.50;;;;;;;15.44;73.34;100746.78;3592601;39;20061;-68
2023/09/19 05:06:22;;;;;;;9.48;2.55;;;;;;;15.43;73.88;100745.94;3593545;39;20099;-67
2023/09/19 05:08:52;;;;;;;6.82;2.13;;;;;;;15.43;73.49;100750.50;3593015;39;20063;-68
2023/09/19 05:11:22;;;;;;;10.90;2.72;;;;;;;15.41;73.10;100750.59;3593996;39;20666;-68
2023/09/19 05:13:50;;;;;;;6.90;2.33;;;;;;;15.43;73.45;100753.19;3592670;39;20064;-69
2023/09/19 05:16:16;;;;;;;9.77;2.67;;;;;;;15.44;74.01;100755.75;3592018;39;20422;-68
2023/09/19 05:18:42;;;;;;;7.38;2.25;;;;;;;15.44;73.38;100741.38;3594597;39;20154;-68
2023/09/19 05:21:07;;;;;;;10.45;2.92;;;;;;;15.44;74.20;100746.78;3596031;39;20325;-68
2023/09/19 05:23:34;;;;;;;10.75;3.00;;;;;;;15.44;74.27;100747.63;3593916;39;20052;-68
2023/09/19 05:26:00;;;;;;;8.52;2.50;;;;;;;15.42;74.48;100746.06;3595033;39;20051;-68
2023/09/19 05:28:26;;;;;;;6.97;2.30;;;;;;;15.17;74.58;100707.47;3591753;39;20058;-69
2023/09/19 05:30:55;;;;;;;11.38;2.92;;;;;;;15.22;74.88;100721.50;3592039;39;20063;-68
2023/09/19 05:33:21;;;;;;;9.35;2.38;;;;;;;15.43;75.09;100759.47;3592150;39;20109;-69
2023/09/19 05:35:48;;;;;;;9.60;2.78;;;;;;;15.41;75.49;100747.03;3590487;39;20072;-68
2023/09/19 05:38:18;;;;;;;11.23;2.67;;;;;;;15.41;74.94;100757.88;3595685;39;20040;-67
2023/09/19 05:40:45;;;;;;;8.13;2.45;;;;;;;15.45;75.18;100751.22;3592606;39;20062;-66
2023/09/19 05:43:11;;;;;;;13.40;2.42;;;;;;;15.39;75.33;100758.00;3583363;39;20387;-67
2023/09/19 05:45:37;;;;;;;10.80;2.63;;;;;;;15.39;75.14;100754.44;3594318;39;20051;-65
2023/09/19 05:48:13;;;;;;;9.52;2.72;;;;;;;15.42;75.16;100756.91;3599065;39;20052;-68
2023/09/19 05:50:39;;;;;;;8.52;2.42;;;;;;;15.30;75.92;100734.41;3592427;39;20406;-67
2023/09/19 05:53:05;;;;;;;9.00;2.45;;;;;;;15.44;75.55;100753.06;3595129;39;20056;-66
2023/09/19 05:55:32;;;;;;;8.27;2.70;;;;;;;15.37;76.06;100741.00;3591238;39;20099;-66
2023/09/19 05:57:58;;;;;;;8.07;2.53;;;;;;;15.47;75.77;100746.53;3593540;39;20095;-66
2023/09/19 06:00:27;;;;;;;12.75;3.10;;;;;;;15.48;76.17;100741.00;3594612;39;20279;-67
2023/09/19 06:02:55;;;;;;;8.85;2.47;;;;;;;15.47;76.20;100744.66;3589758;39;20066;-66
2023/09/19 06:05:21;;;;;;;7.45;2.42;;;;;;;15.43;75.84;100743.22;3593345;39;20060;-66
2023/09/19 06:07:47;;;;;;;9.52;2.45;;;;;;;15.46;76.49;100744.81;3592027;39;20064;-66
2023/09/19 06:10:14;;;;;;;9.27;2.60;;;;;;;15.51;76.40;100748.00;3595191;39;20356;-66
2023/09/19 06:12:44;;;;;;;13.43;2.83;;;;;;;15.50;77.06;100752.53;3592823;39;20056;-67
2023/09/19 06:15:18;;;;;;;16.40;4.50;;;;;;;15.52;76.98;100761.41;3595409;39;20125;-66
2023/09/19 06:17:54;;;;;;;10.65;2.63;;;;;;;15.52;76.28;100756.00;3591623;39;20052;-67
2023/09/19 06:20:22;;;;;;;9.52;2.28;;;;;;;15.53;76.82;100757.72;3591619;39;20096;-66
2023/09/19 06:22:49;;;;;;;7.45;2.35;;;;;;;15.54;76.89;100759.44;3592119;39;20064;-66
2023/09/19 06:25:25;;;;;;;9.95;2.90;;;;;;;15.56;76.89;100762.00;3591477;39;20070;-66
2023/09/19 06:27:53;;;;;;;14.55;2.75;;;;;;;15.57;77.43;100763.72;3591685;39;20390;-66
2023/09/19 06:30:23;;;;;;;12.20;2.95;;;;;;;15.57;76.92;100769.13;3595376;39;20109;-66
2023/09/19 06:32:49;;;;;;;8.73;2.60;;;;;;;15.58;77.30;100775.44;3591313;39;20062;-66
2023/09/19 06:35:16;;;;;;;12.93;3.00;;;;;;;15.58;77.47;100776.31;3596492;39;20285;-68
2023/09/19 06:37:43;;;;;;;10.02;3.05;;;;;;;15.63;76.99;100784.88;3592135;39;20048;-66
2023/09/19 06:40:14;;;;;;;11.00;2.58;;;;;;;15.66;76.74;100786.50;3592607;39;20063;-67
2023/09/19 06:42:45;;;;;;;11.77;2.67;;;;;;;15.67;76.61;100780.13;3592833;39;20129;-66
2023/09/19 06:45:17;;;;;;;8.82;2.60;;;;;;;15.69;76.74;100789.84;3593571;39;20051;-67
2023/09/19 06:47:44;;;;;;;9.60;2.58;;;;;;;15.73;76.46;100791.31;3591283;39;20049;-66
2023/09/19 06:50:13;;;;;;;8.65;2.35;;;;;;;15.78;76.04;100788.19;3593307;39;20091;-67
2023/09/19 06:52:41;;;;;;;11.43;2.80;;;;;;;15.80;76.96;100788.09;3589381;39;20432;-66
2023/09/19 06:55:07;;;;;;;11.52;3.17;;;;;;;15.78;77.00;100791.78;3592586;39;20060;-66
2023/09/19 06:57:33;;;;;;;11.35;2.97;;;;;;;15.83;77.46;100785.97;3596047;39;20248;-66
2023/09/19 06:59:58;;;;;;;10.40;2.90;;;;;;;15.86;77.47;100792.97;3596829;39;20390;-67
2023/09/19 07:02:24;;;;;;;11.32;2.70;;;;;;;15.87;76.76;100789.28;3594304;39;20315;-66
2023/09/19 07:04:49;;;;;;;9.15;2.60;;;;;;;15.91;76.89;100788.88;3583239;39;20094;-66
2023/09/19 07:07:16;;;;;;;9.23;2.53;;;;;;;15.94;76.40;100794.03;3595534;39;20361;-66
2023/09/19 07:09:45;;;;;;;14.25;2.72;;;;;;;15.98;76.17;100789.22;3592408;39;20121;-66
2023/09/19 07:12:11;;;;;;;8.60;2.55;;;;;;;16.02;76.25;100788.84;3593347;39;20051;-66
2023/09/19 07:14:37;;;;;;;9.35;2.90;;;;;;;16.06;76.85;100800.28;3594378;39;20052;-66
2023/09/19 07:17:03;;;;;;;9.82;2.47;;;;;;;16.09;76.40;100801.88;3595415;39;20055;-67
2023/09/19 07:19:30;;;;;;;13.25;2.95;;;;;;;16.14;76.29;100794.19;3593073;39;20048;-65
2023/09/19 07:21:55;;;;;;;8.18;2.42;;;;;;;16.19;75.84;100795.53;3593566;39;20040;-66
2023/09/19 07:24:23;;;;;;;7.95;2.35;;;;;;;16.25;76.23;100802.28;3593527;39;20058;-67
2023/09/19 07:26:50;;;;;;;14.13;2.60;;;;;;;16.32;75.45;100797.19;3593254;39;20363;-66
2023/09/19 07:29:15;;;;;;;12.25;3.03;;;;;;;16.30;75.74;100802.75;3594734;39;20095;-66
2023/09/19 07:31:41;;;;;;;12.23;3.05;;;;;;;16.33;75.68;100799.75;3595093;39;20062;-67
2023/09/19 07:34:08;;;;;;;12.88;3.45;;;;;;;16.37;75.49;100790.38;3593084;39;20051;-66
2023/09/19 07:36:35;;;;;;;9.57;2.50;;;;;;;16.50;75.98;100789.31;3592770;39;20062;-65
2023/09/19 07:39:00;;;;;;;13.30;2.67;;;;;;;16.54;75.07;100788.03;3592401;39;20099;-66
2023/09/19 07:41:27;;;;;;;8.52;2.83;;;;;;;16.63;74.74;100787.22;3592283;39;20063;-67
2023/09/19 07:43:52;;;;;;;10.52;2.85;;;;;;;16.74;74.63;100787.13;3594506;39;20363;-65
2023/09/19 07:46:18;;;;;;;12.38;2.95;;;;;;;16.82;73.27;100798.22;3593456;39;20055;-66
2023/09/19 07:48:48;;;;;;;10.85;2.83;;;;;;;16.89;73.65;100799.38;3593973;39;20055;-65
2023/09/19 07:51:15;;;;;;;9.27;2.65;;;;;;;16.94;73.12;100804.41;3594867;39;20151;-66
2023/09/19 07:53:42;;;;;;;8.77;2.70;;;;;;;17.04;72.07;100799.03;3592388;39;20059;-66
2023/09/19 07:56:10;;;;;;;9.45;2.13;;;;;;;17.08;71.77;100795.88;3593917;39;20047;-66
2023/09/19 07:58:40;;;;;;;10.32;2.65;;;;;;;17.14;72.77;100797.19;3595440;39;20101;-67
2023/09/19 08:01:10;;;;;;;14.82;2.97;;;;;;;17.22;71.72;100807.34;3593440;39;20071;-66
2023/09/19 08:03:40;;;;;;;9.45;2.42;;;;;;;17.32;72.69;100798.25;3592437;39;20051;-66
2023/09/19 08:06:07;;;;;;;7.15;2.63;;;;;;;17.44;71.39;100806.25;3591947;39;20129;-67
2023/09/19 08:08:37;;;;;;;13.20;3.38;;;;;;;17.48;71.79;100815.88;3593693;39;20059;-67
2023/09/19 08:11:12;;;;;;;11.98;3.03;;;;;;;17.59;69.76;100815.75;3594788;39;20383;-65
2023/09/19 08:13:43;;;;;;;11.73;2.85;;;;;;;17.59;70.42;100808.44;3595120;39;20121;-66
2023/09/19 08:16:10;;;;;;;10.75;3.03;;;;;;;17.62;70.68;100816.31;3593453;39;20049;-66
2023/09/19 08:18:39;;;;;;;9.05;2.42;;;;;;;17.69;70.91;100808.44;3595251;39;20048;-66
2023/09/19 08:21:08;;;;;;;10.35;2.72;;;;;;;17.79;70.39;100813.94;3598045;39;20467;-68
2023/09/19 08:23:33;;;;;;;11.45;2.45;;;;;;;17.96;69.76;100817.81;3596019;39;20129;-65
2023/09/19 08:26:03;;;;;;;12.68;3.03;;;;;;;18.05;69.63;100817.81;3592991;39;20055;-66
2023/09/19 08:28:29;;;;;;;10.27;2.95;;;;;;;18.12;68.21;100818.09;3592628;39;20345;-65
2023/09/19 08:30:55;;;;;;;8.85;2.35;;;;;;;18.23;68.52;100809.78;3593963;39;20048;-65
2023/09/19 08:33:21;;;;;;;10.80;2.60;;;;;;;18.30;67.51;100805.50;3593970;39;20066;-67
2023/09/19 08:35:46;;;;;;;10.05;2.72;;;;;;;18.38;67.34;100801.19;3592775;39;20055;-66
2023/09/19 08:38:13;;;;;;;10.10;2.60;;;;;;;18.41;66.62;100809.91;3594160;39;20071;-65
2023/09/19 08:40:41;;;;;;;9.63;2.50;;;;;;;18.44;66.90;100808.75;3595246;39;20054;-66
2023/09/19 08:43:08;;;;;;;10.13;2.33;;;;;;;18.42;66.86;100808.03;3594680;39;20059;-66
2023/09/19 08:45:34;;;;;;;8.70;2.75;;;;;;;18.43;67.11;100809.78;3595150;39;20092;-65
2023/09/19 08:48:22;;;;;;;10.80;2.88;;;;;;;18.36;66.43;100782.25;3592492;39;20370;-65
2023/09/19 08:51:03;;;;;;;7.15;2.33;;;;;;;18.53;65.90;100813.31;3592015;39;20060;-66
2023/09/19 08:53:52;;;;;;;8.00;2.67;;;;;;;18.43;66.65;100812.50;3594533;39;20087;-66
2023/09/19 08:56:19;;;;;;;12.23;3.00;;;;;;;18.53;67.36;100816.06;3594367;39;20056;-66
2023/09/19 08:58:54;;;;;;;9.88;2.55;;;;;;;18.71;66.12;100808.84;3598951;39;20053;-65
2023/09/19 09:01:24;;;;;;;9.73;2.75;;;;;;;18.66;66.46;100789.34;3591876;39;20055;-67
2023/09/19 09:03:53;;;;;;;11.65;3.30;;;;;;;18.91;66.06;100814.25;3592831;39;20325;-67
2023/09/19 09:06:21;;;;;;;12.65;2.78;;;;;;;18.85;65.98;100777.56;3592841;39;20048;-66
2023/09/19 09:08:47;;;;;;;12.60;2.70;;;;;;;19.07;64.25;100814.47;3592888;39;20129;-65
2023/09/19 09:11:17;;;;;;;8.98;2.72;;;;;;;19.08;64.11;100799.81;3591235;39;20063;-66
2023/09/19 09:13:47;;;;;;;8.57;2.50;;;;;;;18.76;64.02;100760.25;3593276;39;20059;-65
2023/09/19 09:16:18;;;;;;;11.20;2.75;;;;;;;19.40;63.76;100809.41;3591827;39;20219;-66
2023/09/19 09:18:45;;;;;;;9.10;2.92;;;;;;;19.45;63.44;100801.66;3592278;39;20080;-65
2023/09/19 09:21:14;;;;;;;12.43;2.92;;;;;;;19.65;62.16;100814.16;3592106;39;20102;-67
2023/09/19 09:23:40;;;;;;;9.82;2.58;;;;;;;19.77;62.49;100798.44;3593263;39;20043;-67
2023/09/19 09:26:07;;;;;;;10.18;2.75;;;;;;;19.98;61.96;100825.41;3590747;39;20294;-67
2023/09/19 09:28:35;;;;;;;11.20;3.28;;;;;;;19.94;60.62;100818.53;3593780;39;20059;-66
2023/09/19 09:31:09;;;;;;;9.38;2.60;;;;;;;20.10;61.33;100818.69;3593229;39;20408;-64
2023/09/19 09:33:36;;;;;;;9.75;2.50;;;;;;;19.88;59.89;100792.72;3593805;39;20048;-65
2023/09/19 09:36:05;;;;;;;9.10;2.38;;;;;;;20.21;60.78;100803.09;3586417;39;20051;-65
2023/09/19 09:38:45;;;;;;;8.85;2.65;;;;;;;20.10;60.50;100769.56;3592775;39;20052;-67
2023/09/19 09:41:15;;;;;;;10.70;2.58;;;;;;;20.33;58.97;100791.78;3594338;39;20125;-66
2023/09/19 09:43:46;;;;;;;6.88;2.25;;;;;;;20.30;59.51;100818.53;3592012;39;20046;-67
2023/09/19 09:49:19;;;;;;;10.27;2.90;;;;;;;20.44;57.93;100790.63;3591501;39;20087;-66
2023/09/19 09:52:07;;;;;;;7.63;2.10;;;;;;;20.42;58.48;100787.19;3592683;39;20076;-65
2023/09/19 09:54:41;;;;;;;7.88;2.20;;;;;;;20.56;57.53;100789.41;3593564;39;20089;-67
2023/09/19 09:57:20;;;;;;;8.98;2.45;;;;;;;20.75;55.95;100790.19;3591870;39;20359;-66
2023/09/19 10:00:14;;;;;;;6.32;2.20;;;;;;;20.88;56.58;100796.06;3592241;39;20347;-66
2023/09/19 10:02:40;;;;;;;10.18;2.20;;;;;;;20.99;56.21;100797.66;3593220;39;20272;-67
2023/09/19 10:05:28;;;;;;;6.60;2.45;;;;;;;21.05;55.22;100792.38;3591389;39;20295;-65
2023/09/19 10:08:08;;;;;;;10.55;2.60;;;;;;;21.14;56.05;100796.03;3591612;39;20078;-65
2023/09/19 10:13:07;;;;;;;11.23;2.67;;;;;;;21.17;55.86;100794.84;3591657;39;20115;-66
2023/09/19 10:15:36;;;;;;;6.60;2.25;;;;;;;21.25;54.73;100797.59;3592128;39;20044;-66
2023/09/19 10:18:08;;;;;;;6.57;2.28;;;;;;;21.33;54.56;100803.09;3592890;39;20051;-68
2023/09/19 10:20:38;;;;;;;9.38;2.88;;;;;;;21.45;54.61;100803.69;3593214;39;20495;-66
2023/09/19 10:23:13;;;;;;;8.30;2.15;;;;;;;21.56;53.89;100784.22;3590527;39;20059;-66
2023/09/19 10:25:47;;;;;;;7.50;2.40;;;;;;;21.55;53.40;100775.16;3592473;39;20062;-67
2023/09/19 10:28:16;;;;;;;9.00;2.40;;;;;;;21.64;53.29;100780.66;3591795;39;20067;-67
2023/09/19 10:30:48;;;;;;;8.30;2.38;;;;;;;21.67;53.76;100785.81;3590635;39;20117;-67
2023/09/19 10:33:20;;;;;;;6.20;2.22;;;;;;;21.87;53.88;100798.13;3591279;39;20056;-66
2023/09/19 10:35:48;;;;;;;11.57;1.98;;;;;;;21.92;52.55;100778.47;3593070;39;20116;-65
2023/09/19 10:38:21;;;;;;;8.20;2.20;;;;;;;22.03;51.51;100809.09;3591732;39;20072;-66
2023/09/19 10:40:59;;;;;;;8.65;2.28;;;;;;;21.71;51.05;100768.88;3590988;39;20146;-66
2023/09/19 10:43:33;;;;;;;10.65;2.83;;;;;;;21.76;52.66;100790.25;3592013;39;20326;-67
2023/09/19 10:46:07;;;;;;;8.63;2.53;;;;;;;22.00;52.29;100793.00;3595520;39;20063;-66
2023/09/19 10:48:34;;;;;;;5.68;2.30;;;;;;;22.12;52.95;100795.41;3594686;39;20067;-67
2023/09/19 10:51:13;;;;;;;8.98;2.30;;;;;;;22.21;50.63;100791.69;3591642;39;20059;-66
2023/09/19 10:53:52;;;;;;;8.68;2.40;;;;;;;22.16;51.53;100774.91;3592313;39;20062;-66
2023/09/19 10:56:32;;;;;;;7.57;2.22;;;;;;;22.16;51.70;100777.66;3591521;39;20056;-67
2023/09/19 10:59:20;;;;;;;5.45;1.77;;;;;;;22.39;51.55;100778.69;3591365;39;20075;-66
2023/09/19 11:01:51;;;;;;;8.63;2.78;;;;;;;22.56;51.49;100771.28;3596913;39;20376;-65
2023/09/19 11:04:36;;;;;;;11.27;2.30;;;;;;;22.81;50.21;100768.47;3594396;39;20060;-66
2023/09/19 11:07:12;;;;;;;8.05;2.30;;;;;;;22.85;48.85;100754.22;3593477;39;20191;-65
2023/09/19 11:09:53;;;;;;;6.57;2.17;;;;;;;22.92;50.15;100744.25;3591662;39;20059;-66
2023/09/19 11:12:31;;;;;;;6.57;2.03;;;;;;;23.20;49.29;100746.56;3593464;39;20118;-67
2023/09/19 11:15:04;;;;;;;8.40;2.50;;;;;;;23.05;47.92;100726.41;3594993;39;20060;-67
2023/09/19 11:17:32;;;;;;;9.85;2.15;;;;;;;23.29;49.12;100745.50;3592325;39;20048;-68
2023/09/19 11:20:15;;;;;;;5.35;1.80;;;;;;;23.23;47.53;100732.50;3595096;39;20047;-65
2023/09/19 11:22:56;;;;;;;5.38;1.90;;;;;;;23.39;47.67;100740.63;3594399;39;20409;-66
2023/09/19 11:25:31;;;;;;;9.45;2.40;;;;;;;23.41;46.42;100748.69;3591125;39;20079;-66
2023/09/19 11:28:06;;;;;;;5.90;1.90;;;;;;;23.46;45.44;100739.91;3591833;39;20052;-67
2023/09/19 11:30:35;;;;;;;5.70;1.83;;;;;;;23.47;45.98;100733.38;3592345;39;20058;-67
2023/09/19 11:33:28;;;;;;;7.90;2.25;;;;;;;23.63;46.08;100728.66;3593306;39;20060;-66
2023/09/19 11:36:14;;;;;;;3.50;1.70;;;;;;;23.75;45.53;100715.38;3591841;39;20318;-67
2023/09/19 11:38:45;;;;;;;6.72;1.88;;;;;;;23.82;44.89;100719.13;3591897;39;20147;-66
2023/09/19 11:41:41;;;;;;;7.88;1.58;;;;;;;23.74;44.73;100708.19;3593419;39;20055;-66